sensor_id;sensor_type;location;lat;lon;timestamp;pressure;altitude;pressure_sealevel;temperature;humidity
73564;BME280;61834;50.196;6.454;2023-03-14T00:02:21;94272.56;;;8.43;93.07
73564;BME280;61834;50.196;6.454;2023-03-14T00:04:46;94277.81;;;8.53;92.38
73564;BME280;61834;50.196;6.454;2023-03-14T00:07:12;94285.88;;;8.60;91.93
73564;BME280;61834;50.196;6.454;2023-03-14T00:09:37;94300.59;;;8.63;92.14
73564;BME280;61834;50.196;6.454;2023-03-14T00:12:03;94276.06;;;8.63;91.66
73564;BME280;61834;50.196;6.454;2023-03-14T00:14:28;94280.00;;;8.62;91.65
73564;BME280;61834;50.196;6.454;2023-03-14T00:16:54;94271.88;;;8.58;92.16
73564;BME280;61834;50.196;6.454;2023-03-14T00:19:19;94261.81;;;8.55;92.21
73564;BME280;61834;50.196;6.454;2023-03-14T00:21:44;94259.16;;;8.52;92.15
73564;BME280;61834;50.196;6.454;2023-03-14T00:24:10;94262.91;;;8.58;92.11
73564;BME280;61834;50.196;6.454;2023-03-14T00:26:35;94262.44;;;8.43;92.90
73564;BME280;61834;50.196;6.454;2023-03-14T00:29:00;94256.16;;;8.46;92.13
73564;BME280;61834;50.196;6.454;2023-03-14T00:31:26;94254.69;;;8.42;92.02
73564;BME280;61834;50.196;6.454;2023-03-14T00:33:51;94260.09;;;8.45;91.88
73564;BME280;61834;50.196;6.454;2023-03-14T00:36:17;94252.81;;;8.39;91.83
73564;BME280;61834;50.196;6.454;2023-03-14T00:38:46;94246.44;;;8.45;92.19
73564;BME280;61834;50.196;6.454;2023-03-14T00:41:12;94247.91;;;8.50;91.64
73564;BME280;61834;50.196;6.454;2023-03-14T00:43:38;94262.88;;;8.42;92.97
73564;BME280;61834;50.196;6.454;2023-03-14T00:46:04;94256.56;;;8.45;93.30
73564;BME280;61834;50.196;6.454;2023-03-14T00:48:30;94255.13;;;8.40;93.75
73564;BME280;61834;50.196;6.454;2023-03-14T00:50:55;94240.59;;;8.27;94.98
73564;BME280;61834;50.196;6.454;2023-03-14T00:53:20;94249.59;;;8.24;95.25
73564;BME280;61834;50.196;6.454;2023-03-14T00:55:46;94258.19;;;8.23;95.06
73564;BME280;61834;50.196;6.454;2023-03-14T00:58:12;94251.38;;;8.11;95.86
73564;BME280;61834;50.196;6.454;2023-03-14T01:00:38;94248.25;;;8.13;95.27
73564;BME280;61834;50.196;6.454;2023-03-14T01:03:04;94235.31;;;8.17;95.49
73564;BME280;61834;50.196;6.454;2023-03-14T01:05:30;94246.63;;;8.15;93.89
73564;BME280;61834;50.196;6.454;2023-03-14T01:07:55;94255.06;;;8.24;93.64
73564;BME280;61834;50.196;6.454;2023-03-14T01:10:21;94249.19;;;8.26;92.57
73564;BME280;61834;50.196;6.454;2023-03-14T01:12:46;94243.25;;;8.31;92.47
73564;BME280;61834;50.196;6.454;2023-03-14T01:15:11;94252.09;;;8.15;93.22
73564;BME280;61834;50.196;6.454;2023-03-14T01:17:37;94249.22;;;8.22;92.54
73564;BME280;61834;50.196;6.454;2023-03-14T01:20:06;94250.28;;;8.28;92.46
73564;BME280;61834;50.196;6.454;2023-03-14T01:22:34;94254.09;;;8.34;91.45
73564;BME280;61834;50.196;6.454;2023-03-14T01:25:02;94254.41;;;8.36;90.75
73564;BME280;61834;50.196;6.454;2023-03-14T01:27:28;94246.03;;;8.27;91.62
73564;BME280;61834;50.196;6.454;2023-03-14T01:29:53;94247.75;;;8.18;92.35
73564;BME280;61834;50.196;6.454;2023-03-14T01:32:18;94249.94;;;8.26;91.93
73564;BME280;61834;50.196;6.454;2023-03-14T01:34:44;94250.50;;;8.18;92.28
73564;BME280;61834;50.196;6.454;2023-03-14T01:37:09;94245.78;;;8.18;92.43
73564;BME280;61834;50.196;6.454;2023-03-14T01:39:37;94259.25;;;8.29;91.71
73564;BME280;61834;50.196;6.454;2023-03-14T01:42:02;94259.66;;;8.27;91.71
73564;BME280;61834;50.196;6.454;2023-03-14T01:44:28;94267.22;;;8.16;91.99
73564;BME280;61834;50.196;6.454;2023-03-14T01:46:53;94273.41;;;8.20;91.81
73564;BME280;61834;50.196;6.454;2023-03-14T01:49:20;94259.41;;;8.18;91.87
73564;BME280;61834;50.196;6.454;2023-03-14T01:54:28;94252.09;;;8.15;91.29
73564;BME280;61834;50.196;6.454;2023-03-14T01:57:02;94256.34;;;8.16;90.75
73564;BME280;61834;50.196;6.454;2023-03-14T01:59:29;94257.09;;;8.17;90.71
73564;BME280;61834;50.196;6.454;2023-03-14T02:01:56;94256.34;;;8.16;91.11
73564;BME280;61834;50.196;6.454;2023-03-14T02:04:21;94261.94;;;8.09;91.99
73564;BME280;61834;50.196;6.454;2023-03-14T02:09:13;94255.66;;;8.12;92.40
73564;BME280;61834;50.196;6.454;2023-03-14T02:11:39;94254.31;;;8.01;92.65
73564;BME280;61834;50.196;6.454;2023-03-14T02:14:09;94237.47;;;8.06;92.39
73564;BME280;61834;50.196;6.454;2023-03-14T02:17:03;94233.69;;;8.00;93.35
73564;BME280;61834;50.196;6.454;2023-03-14T02:19:54;94232.94;;;7.99;92.94
73564;BME280;61834;50.196;6.454;2023-03-14T02:22:37;94229.50;;;7.95;93.27
73564;BME280;61834;50.196;6.454;2023-03-14T02:27:44;94216.31;;;7.94;93.96
73564;BME280;61834;50.196;6.454;2023-03-14T02:30:11;94214.78;;;7.93;94.82
73564;BME280;61834;50.196;6.454;2023-03-14T02:32:39;94206.50;;;7.77;95.54
73564;BME280;61834;50.196;6.454;2023-03-14T02:35:06;94192.75;;;7.84;95.40
73564;BME280;61834;50.196;6.454;2023-03-14T02:37:38;94188.28;;;7.73;96.66
73564;BME280;61834;50.196;6.454;2023-03-14T02:40:07;94180.53;;;7.72;96.26
73564;BME280;61834;50.196;6.454;2023-03-14T02:42:34;94184.59;;;7.64;97.73
73564;BME280;61834;50.196;6.454;2023-03-14T02:47:34;94175.13;;;7.49;99.72
73564;BME280;61834;50.196;6.454;2023-03-14T02:50:01;94183.19;;;7.56;100.00
73564;BME280;61834;50.196;6.454;2023-03-14T02:52:28;94178.22;;;7.51;100.00
73564;BME280;61834;50.196;6.454;2023-03-14T02:54:55;94169.16;;;7.57;99.58
73564;BME280;61834;50.196;6.454;2023-03-14T02:57:20;94174.53;;;7.61;98.91
73564;BME280;61834;50.196;6.454;2023-03-14T02:59:45;94158.53;;;7.63;98.57
73564;BME280;61834;50.196;6.454;2023-03-14T03:02:15;94166.84;;;7.56;99.16
73564;BME280;61834;50.196;6.454;2023-03-14T03:04:40;94169.28;;;7.50;99.76
73564;BME280;61834;50.196;6.454;2023-03-14T03:07:06;94164.88;;;7.56;99.36
73564;BME280;61834;50.196;6.454;2023-03-14T03:09:31;94162.06;;;7.40;99.97
73564;BME280;61834;50.196;6.454;2023-03-14T03:11:56;94168.19;;;7.44;100.00
73564;BME280;61834;50.196;6.454;2023-03-14T03:14:24;94163.53;;;7.45;100.00
73564;BME280;61834;50.196;6.454;2023-03-14T03:16:49;94161.16;;;7.47;100.00
73564;BME280;61834;50.196;6.454;2023-03-14T03:19:15;94160.88;;;7.41;100.00
73564;BME280;61834;50.196;6.454;2023-03-14T03:21:41;94143.63;;;7.48;100.00
73564;BME280;61834;50.196;6.454;2023-03-14T03:24:06;94153.41;;;7.45;100.00
73564;BME280;61834;50.196;6.454;2023-03-14T03:26:35;94146.41;;;7.44;99.73
73564;BME280;61834;50.196;6.454;2023-03-14T03:29:03;94161.53;;;7.49;100.00
73564;BME280;61834;50.196;6.454;2023-03-14T03:31:28;94147.25;;;7.41;100.00
73564;BME280;61834;50.196;6.454;2023-03-14T03:33:54;94139.44;;;7.43;100.00
73564;BME280;61834;50.196;6.454;2023-03-14T03:36:25;94144.97;;;7.40;99.95
73564;BME280;61834;50.196;6.454;2023-03-14T03:38:51;94142.94;;;7.44;100.00
73564;BME280;61834;50.196;6.454;2023-03-14T03:41:17;94145.44;;;7.35;99.93
73564;BME280;61834;50.196;6.454;2023-03-14T03:43:42;94148.28;;;7.28;100.00
73564;BME280;61834;50.196;6.454;2023-03-14T03:46:09;94128.81;;;7.29;100.00
73564;BME280;61834;50.196;6.454;2023-03-14T03:48:35;94130.91;;;7.22;100.00
73564;BME280;61834;50.196;6.454;2023-03-14T03:51:02;94134.00;;;7.24;100.00
73564;BME280;61834;50.196;6.454;2023-03-14T03:53:28;94116.69;;;7.34;100.00
73564;BME280;61834;50.196;6.454;2023-03-14T03:55:53;94118.59;;;7.37;100.00
73564;BME280;61834;50.196;6.454;2023-03-14T03:58:18;94129.16;;;7.31;100.00
73564;BME280;61834;50.196;6.454;2023-03-14T04:00:44;94116.94;;;7.20;100.00
73564;BME280;61834;50.196;6.454;2023-03-14T04:03:09;94114.88;;;7.27;100.00
73564;BME280;61834;50.196;6.454;2023-03-14T04:05:35;94125.81;;;7.24;100.00
73564;BME280;61834;50.196;6.454;2023-03-14T04:08:06;94129.72;;;7.23;100.00
73564;BME280;61834;50.196;6.454;2023-03-14T04:10:34;94127.81;;;7.20;100.00
73564;BME280;61834;50.196;6.454;2023-03-14T04:13:11;94122.50;;;7.13;100.00
73564;BME280;61834;50.196;6.454;2023-03-14T04:15:38;94125.81;;;7.24;100.00
73564;BME280;61834;50.196;6.454;2023-03-14T04:18:10;94112.28;;;7.20;100.00
73564;BME280;61834;50.196;6.454;2023-03-14T04:20:35;94101.81;;;7.19;100.00
73564;BME280;61834;50.196;6.454;2023-03-14T04:23:02;94108.16;;;7.12;100.00
73564;BME280;61834;50.196;6.454;2023-03-14T04:25:28;94107.75;;;7.14;100.00
73564;BME280;61834;50.196;6.454;2023-03-14T04:27:56;94094.56;;;7.12;100.00
73564;BME280;61834;50.196;6.454;2023-03-14T04:30:24;94092.59;;;7.13;100.00
73564;BME280;61834;50.196;6.454;2023-03-14T04:32:52;94086.72;;;7.14;100.00
73564;BME280;61834;50.196;6.454;2023-03-14T04:35:19;94088.75;;;7.10;100.00
73564;BME280;61834;50.196;6.454;2023-03-14T04:37:45;94087.28;;;7.06;100.00
73564;BME280;61834;50.196;6.454;2023-03-14T04:40:14;94088.09;;;7.03;100.00
73564;BME280;61834;50.196;6.454;2023-03-14T04:42:40;94078.47;;;6.98;100.00
73564;BME280;61834;50.196;6.454;2023-03-14T04:45:05;94088.19;;;6.99;100.00
73564;BME280;61834;50.196;6.454;2023-03-14T04:47:31;94077.63;;;7.01;100.00
73564;BME280;61834;50.196;6.454;2023-03-14T04:49:57;94075.34;;;7.00;100.00
73564;BME280;61834;50.196;6.454;2023-03-14T04:52:24;94076.59;;;6.95;100.00
73564;BME280;61834;50.196;6.454;2023-03-14T04:54:50;94064.09;;;6.98;100.00
73564;BME280;61834;50.196;6.454;2023-03-14T04:57:17;94066.81;;;6.98;100.00
73564;BME280;61834;50.196;6.454;2023-03-14T04:59:42;94062.22;;;6.95;100.00
73564;BME280;61834;50.196;6.454;2023-03-14T05:02:20;94068.84;;;6.94;100.00
73564;BME280;61834;50.196;6.454;2023-03-14T05:05:04;94056.34;;;6.96;100.00
73564;BME280;61834;50.196;6.454;2023-03-14T05:07:59;94051.69;;;6.97;100.00
73564;BME280;61834;50.196;6.454;2023-03-14T05:10:40;94054.13;;;6.91;100.00
73564;BME280;61834;50.196;6.454;2023-03-14T05:13:13;94057.06;;;7.00;100.00
73564;BME280;61834;50.196;6.454;2023-03-14T05:15:49;94052.84;;;6.99;100.00
73564;BME280;61834;50.196;6.454;2023-03-14T05:18:46;94053.63;;;6.96;100.00
73564;BME280;61834;50.196;6.454;2023-03-14T05:21:24;94067.13;;;7.03;100.00
73564;BME280;61834;50.196;6.454;2023-03-14T05:24:07;94072.56;;;7.03;100.00
73564;BME280;61834;50.196;6.454;2023-03-14T05:26:52;94063.34;;;6.97;100.00
73564;BME280;61834;50.196;6.454;2023-03-14T05:29:29;94068.31;;;7.02;100.00
73564;BME280;61834;50.196;6.454;2023-03-14T05:32:13;94057.13;;;6.97;100.00
73564;BME280;61834;50.196;6.454;2023-03-14T05:34:49;94044.72;;;6.96;100.00
73564;BME280;61834;50.196;6.454;2023-03-14T05:37:33;94037.31;;;6.96;100.00
73564;BME280;61834;50.196;6.454;2023-03-14T05:40:14;94042.75;;;6.96;100.00
73564;BME280;61834;50.196;6.454;2023-03-14T05:42:56;94032.72;;;6.93;100.00
73564;BME280;61834;50.196;6.454;2023-03-14T05:45:40;94046.56;;;7.02;100.00
73564;BME280;61834;50.196;6.454;2023-03-14T05:48:24;94038.41;;;7.02;100.00
73564;BME280;61834;50.196;6.454;2023-03-14T05:51:05;94041.19;;;6.99;100.00
73564;BME280;61834;50.196;6.454;2023-03-14T05:53:57;94026.81;;;6.98;100.00
73564;BME280;61834;50.196;6.454;2023-03-14T05:56:42;94030.72;;;6.97;100.00
73564;BME280;61834;50.196;6.454;2023-03-14T05:59:30;94028.34;;;6.99;100.00
73564;BME280;61834;50.196;6.454;2023-03-14T06:02:12;94021.78;;;6.97;100.00
73564;BME280;61834;50.196;6.454;2023-03-14T06:04:49;94027.22;;;6.97;100.00
73564;BME280;61834;50.196;6.454;2023-03-14T06:07:14;94025.63;;;6.99;100.00
73564;BME280;61834;50.196;6.454;2023-03-14T06:09:40;94020.09;;;7.03;100.00
73564;BME280;61834;50.196;6.454;2023-03-14T06:12:06;94025.97;;;7.01;100.00
73564;BME280;61834;50.196;6.454;2023-03-14T06:14:37;94026.19;;;7.10;100.00
73564;BME280;61834;50.196;6.454;2023-03-14T06:17:03;94019.34;;;7.02;100.00
73564;BME280;61834;50.196;6.454;2023-03-14T06:19:34;94024.09;;;6.98;100.00
73564;BME280;61834;50.196;6.454;2023-03-14T06:22:00;94020.41;;;7.08;100.00
73564;BME280;61834;50.196;6.454;2023-03-14T06:24:25;94022.44;;;7.04;100.00
73564;BME280;61834;50.196;6.454;2023-03-14T06:26:51;94014.75;;;7.19;100.00
73564;BME280;61834;50.196;6.454;2023-03-14T06:29:16;94026.00;;;7.21;100.00
73564;BME280;61834;50.196;6.454;2023-03-14T06:31:42;94034.97;;;7.18;100.00
73564;BME280;61834;50.196;6.454;2023-03-14T06:34:08;94022.78;;;7.26;100.00
73564;BME280;61834;50.196;6.454;2023-03-14T06:36:34;94025.72;;;7.15;100.00
73564;BME280;61834;50.196;6.454;2023-03-14T06:38:59;94029.19;;;7.16;100.00
73564;BME280;61834;50.196;6.454;2023-03-14T06:41:26;94034.16;;;7.21;100.00
73564;BME280;61834;50.196;6.454;2023-03-14T06:43:51;94027.94;;;7.20;100.00
73564;BME280;61834;50.196;6.454;2023-03-14T06:46:18;94033.81;;;7.19;100.00
73564;BME280;61834;50.196;6.454;2023-03-14T06:48:43;94034.41;;;7.26;100.00
73564;BME280;61834;50.196;6.454;2023-03-14T06:51:08;94035.47;;;7.32;100.00
73564;BME280;61834;50.196;6.454;2023-03-14T06:53:34;94038.81;;;7.40;100.00
73564;BME280;61834;50.196;6.454;2023-03-14T06:56:01;94025.28;;;7.36;100.00
73564;BME280;61834;50.196;6.454;2023-03-14T06:58:28;94036.38;;;7.45;100.00
73564;BME280;61834;50.196;6.454;2023-03-14T07:00:54;94039.66;;;7.37;100.00
73564;BME280;61834;50.196;6.454;2023-03-14T07:03:23;94038.47;;;7.38;100.00
73564;BME280;61834;50.196;6.454;2023-03-14T07:05:52;94036.66;;;7.31;100.00
73564;BME280;61834;50.196;6.454;2023-03-14T07:08:17;94036.38;;;7.45;100.00
73564;BME280;61834;50.196;6.454;2023-03-14T07:10:43;94033.31;;;7.43;100.00
73564;BME280;61834;50.196;6.454;2023-03-14T07:13:08;94035.59;;;7.45;100.00
73564;BME280;61834;50.196;6.454;2023-03-14T07:15:42;94026.94;;;7.50;100.00
73564;BME280;61834;50.196;6.454;2023-03-14T07:18:09;94048.94;;;7.59;100.00
73564;BME280;61834;50.196;6.454;2023-03-14T07:20:34;94042.50;;;7.49;100.00
73564;BME280;61834;50.196;6.454;2023-03-14T07:23:00;94046.50;;;7.45;100.00
73564;BME280;61834;50.196;6.454;2023-03-14T07:25:38;94035.59;;;7.64;100.00
73564;BME280;61834;50.196;6.454;2023-03-14T07:28:04;94059.00;;;7.62;100.00
73564;BME280;61834;50.196;6.454;2023-03-14T07:30:29;94055.00;;;7.66;100.00
73564;BME280;61834;50.196;6.454;2023-03-14T07:32:56;94049.97;;;7.65;100.00
73564;BME280;61834;50.196;6.454;2023-03-14T07:35:23;94055.06;;;7.83;100.00
73564;BME280;61834;50.196;6.454;2023-03-14T07:37:48;94042.88;;;7.71;100.00
73564;BME280;61834;50.196;6.454;2023-03-14T07:40:16;94056.16;;;7.85;100.00
73564;BME280;61834;50.196;6.454;2023-03-14T07:42:42;94049.63;;;7.83;100.00
73564;BME280;61834;50.196;6.454;2023-03-14T07:45:15;94045.19;;;7.89;100.00
73564;BME280;61834;50.196;6.454;2023-03-14T07:47:40;94062.25;;;7.93;100.00
73564;BME280;61834;50.196;6.454;2023-03-14T07:50:06;94053.97;;;7.96;100.00
73564;BME280;61834;50.196;6.454;2023-03-14T07:52:31;94063.06;;;7.90;100.00
73564;BME280;61834;50.196;6.454;2023-03-14T07:54:57;94058.25;;;7.97;100.00
73564;BME280;61834;50.196;6.454;2023-03-14T07:57:22;94057.38;;;7.84;100.00
73564;BME280;61834;50.196;6.454;2023-03-14T07:59:48;94075.53;;;8.07;100.00
73564;BME280;61834;50.196;6.454;2023-03-14T08:02:14;94064.84;;;8.16;100.00
73564;BME280;61834;50.196;6.454;2023-03-14T08:04:39;94080.34;;;8.19;100.00
73564;BME280;61834;50.196;6.454;2023-03-14T08:07:05;94075.91;;;8.09;100.00
73564;BME280;61834;50.196;6.454;2023-03-14T08:09:30;94079.13;;;8.20;100.00
73564;BME280;61834;50.196;6.454;2023-03-14T08:11:56;94076.72;;;8.25;100.00
73564;BME280;61834;50.196;6.454;2023-03-14T08:14:21;94070.75;;;8.30;100.00
73564;BME280;61834;50.196;6.454;2023-03-14T08:16:49;94077.22;;;8.36;100.00
73564;BME280;61834;50.196;6.454;2023-03-14T08:19:14;94080.34;;;8.54;100.00
73564;BME280;61834;50.196;6.454;2023-03-14T08:21:39;94074.78;;;8.42;100.00
73564;BME280;61834;50.196;6.454;2023-03-14T08:24:05;94085.69;;;8.42;100.00
73564;BME280;61834;50.196;6.454;2023-03-14T08:26:31;94078.00;;;8.37;100.00
73564;BME280;61834;50.196;6.454;2023-03-14T08:28:56;94090.03;;;8.20;100.00
73564;BME280;61834;50.196;6.454;2023-03-14T08:31:21;94085.09;;;8.15;100.00
73564;BME280;61834;50.196;6.454;2023-03-14T08:33:47;94092.94;;;8.13;100.00
73564;BME280;61834;50.196;6.454;2023-03-14T08:36:12;94084.78;;;8.13;100.00
73564;BME280;61834;50.196;6.454;2023-03-14T08:38:37;94082.63;;;8.20;100.00
73564;BME280;61834;50.196;6.454;2023-03-14T08:41:02;94086.22;;;8.17;100.00
73564;BME280;61834;50.196;6.454;2023-03-14T08:43:29;94084.81;;;8.29;100.00
73564;BME280;61834;50.196;6.454;2023-03-14T08:45:57;94076.75;;;8.22;100.00
73564;BME280;61834;50.196;6.454;2023-03-14T08:48:22;94093.59;;;8.36;100.00
73564;BME280;61834;50.196;6.454;2023-03-14T08:50:48;94088.44;;;8.22;100.00
73564;BME280;61834;50.196;6.454;2023-03-14T08:53:13;94090.53;;;8.15;100.00
73564;BME280;61834;50.196;6.454;2023-03-14T08:55:39;94091.59;;;8.21;100.00
73564;BME280;61834;50.196;6.454;2023-03-14T08:58:04;94084.75;;;8.32;100.00
73564;BME280;61834;50.196;6.454;2023-03-14T09:00:29;94091.91;;;8.42;100.00
73564;BME280;61834;50.196;6.454;2023-03-14T09:02:55;94083.66;;;8.62;100.00
73564;BME280;61834;50.196;6.454;2023-03-14T09:05:20;94085.78;;;8.70;100.00
73564;BME280;61834;50.196;6.454;2023-03-14T09:07:45;94090.97;;;8.49;100.00
73564;BME280;61834;50.196;6.454;2023-03-14T09:10:11;94095.25;;;8.66;100.00
73564;BME280;61834;50.196;6.454;2023-03-14T09:12:36;94099.06;;;8.68;100.00
73564;BME280;61834;50.196;6.454;2023-03-14T09:15:01;94096.94;;;8.60;100.00
73564;BME280;61834;50.196;6.454;2023-03-14T09:17:27;94086.13;;;8.72;100.00
73564;BME280;61834;50.196;6.454;2023-03-14T09:19:52;94095.09;;;8.89;100.00
73564;BME280;61834;50.196;6.454;2023-03-14T09:22:17;94102.16;;;8.70;100.00
73564;BME280;61834;50.196;6.454;2023-03-14T09:24:43;94117.06;;;8.66;100.00
73564;BME280;61834;50.196;6.454;2023-03-14T09:27:08;94120.81;;;8.72;100.00
73564;BME280;61834;50.196;6.454;2023-03-14T09:29:33;94116.09;;;8.56;100.00
73564;BME280;61834;50.196;6.454;2023-03-14T09:31:59;94147.28;;;8.39;100.00
73564;BME280;61834;50.196;6.454;2023-03-14T09:34:24;94187.13;;;8.33;100.00
73564;BME280;61834;50.196;6.454;2023-03-14T09:36:50;94227.31;;;7.67;100.00
73564;BME280;61834;50.196;6.454;2023-03-14T09:39:15;94244.66;;;7.30;100.00
73564;BME280;61834;50.196;6.454;2023-03-14T09:41:51;94252.94;;;6.97;99.40
73564;BME280;61834;50.196;6.454;2023-03-14T09:44:26;94268.53;;;6.93;100.00
73564;BME280;61834;50.196;6.454;2023-03-14T09:46:54;94298.91;;;6.58;98.85
73564;BME280;61834;50.196;6.454;2023-03-14T09:49:27;94301.22;;;6.29;98.56
73564;BME280;61834;50.196;6.454;2023-03-14T09:51:54;94303.69;;;6.16;100.00
73564;BME280;61834;50.196;6.454;2023-03-14T09:54:26;94327.41;;;6.12;100.00
73564;BME280;61834;50.196;6.454;2023-03-14T09:56:54;94322.81;;;6.06;98.21
73564;BME280;61834;50.196;6.454;2023-03-14T09:59:19;94332.88;;;6.09;98.66
73564;BME280;61834;50.196;6.454;2023-03-14T10:01:45;94358.34;;;5.78;96.78
73564;BME280;61834;50.196;6.454;2023-03-14T10:04:12;94370.81;;;5.72;96.12
73564;BME280;61834;50.196;6.454;2023-03-14T10:06:39;94356.81;;;5.77;97.36
73564;BME280;61834;50.196;6.454;2023-03-14T10:09:04;94360.06;;;6.05;100.00
73564;BME280;61834;50.196;6.454;2023-03-14T10:11:30;94369.59;;;5.83;97.90
73564;BME280;61834;50.196;6.454;2023-03-14T10:14:03;94377.34;;;5.78;98.44
73564;BME280;61834;50.196;6.454;2023-03-14T10:16:30;94384.38;;;5.72;99.15
73564;BME280;61834;50.196;6.454;2023-03-14T10:19:01;94404.09;;;5.79;99.61
73564;BME280;61834;50.196;6.454;2023-03-14T10:21:27;94418.81;;;5.85;97.49
73564;BME280;61834;50.196;6.454;2023-03-14T10:23:53;94421.19;;;5.76;93.88
73564;BME280;61834;50.196;6.454;2023-03-14T10:26:27;94411.88;;;5.77;94.69
73564;BME280;61834;50.196;6.454;2023-03-14T10:28:53;94413.03;;;5.83;95.51
73564;BME280;61834;50.196;6.454;2023-03-14T10:31:24;94441.28;;;5.86;94.53
73564;BME280;61834;50.196;6.454;2023-03-14T10:33:59;94433.22;;;5.82;95.06
73564;BME280;61834;50.196;6.454;2023-03-14T10:36:29;94445.13;;;5.95;97.21
73564;BME280;61834;50.196;6.454;2023-03-14T10:41:40;94460.38;;;5.72;97.73
73564;BME280;61834;50.196;6.454;2023-03-14T10:44:05;94469.75;;;5.64;100.00
73564;BME280;61834;50.196;6.454;2023-03-14T10:46:34;94478.22;;;5.69;100.00
73564;BME280;61834;50.196;6.454;2023-03-14T10:49:34;94488.66;;;5.74;100.00
73564;BME280;61834;50.196;6.454;2023-03-14T10:54:34;94506.28;;;5.45;98.53
73564;BME280;61834;50.196;6.454;2023-03-14T10:57:00;94525.66;;;5.51;99.92
73564;BME280;61834;50.196;6.454;2023-03-14T10:59:27;94540.41;;;5.39;99.63
73564;BME280;61834;50.196;6.454;2023-03-14T11:02:03;94549.44;;;5.18;99.07
73564;BME280;61834;50.196;6.454;2023-03-14T11:04:43;94554.06;;;5.22;100.00
73564;BME280;61834;50.196;6.454;2023-03-14T11:07:24;94557.56;;;5.15;98.33
73564;BME280;61834;50.196;6.454;2023-03-14T11:10:00;94572.63;;;5.34;97.18
73564;BME280;61834;50.196;6.454;2023-03-14T11:12:34;94591.63;;;5.27;96.52
73564;BME280;61834;50.196;6.454;2023-03-14T11:15:05;94597.13;;;5.05;96.11
73564;BME280;61834;50.196;6.454;2023-03-14T11:17:37;94611.81;;;5.04;97.28
73564;BME280;61834;50.196;6.454;2023-03-14T11:20:04;94613.78;;;4.97;97.17
73564;BME280;61834;50.196;6.454;2023-03-14T11:22:42;94647.47;;;4.96;95.46
73564;BME280;61834;50.196;6.454;2023-03-14T11:28:15;94651.75;;;4.90;95.95
73564;BME280;61834;50.196;6.454;2023-03-14T11:30:46;94662.97;;;4.74;95.55
73564;BME280;61834;50.196;6.454;2023-03-14T11:33:15;94669.94;;;4.68;96.62
73564;BME280;61834;50.196;6.454;2023-03-14T11:38:32;94666.44;;;4.92;96.90
73564;BME280;61834;50.196;6.454;2023-03-14T11:40:56;94673.03;;;4.70;95.46
73564;BME280;61834;50.196;6.454;2023-03-14T11:45:54;94697.00;;;4.40;96.31
73564;BME280;61834;50.196;6.454;2023-03-14T11:48:27;94710.53;;;4.33;97.61
73564;BME280;61834;50.196;6.454;2023-03-14T11:50:55;94737.19;;;4.24;97.88
73564;BME280;61834;50.196;6.454;2023-03-14T11:53:25;94753.75;;;4.05;95.57
73564;BME280;61834;50.196;6.454;2023-03-14T11:55:54;94748.34;;;4.02;94.77
73564;BME280;61834;50.196;6.454;2023-03-14T11:58:20;94762.66;;;4.06;96.06
73564;BME280;61834;50.196;6.454;2023-03-14T12:00:48;94750.66;;;4.07;95.86
73564;BME280;61834;50.196;6.454;2023-03-14T12:03:21;94769.25;;;4.08;96.46
73564;BME280;61834;50.196;6.454;2023-03-14T12:08:22;94781.97;;;4.04;95.43
73564;BME280;61834;50.196;6.454;2023-03-14T12:10:52;94795.56;;;4.11;94.34
73564;BME280;61834;50.196;6.454;2023-03-14T12:13:19;94815.41;;;4.40;93.58
73564;BME280;61834;50.196;6.454;2023-03-14T12:15:55;94796.50;;;4.64;93.21
73564;BME280;61834;50.196;6.454;2023-03-14T12:18:25;94815.47;;;4.61;92.51
73564;BME280;61834;50.196;6.454;2023-03-14T12:21:01;94823.59;;;4.50;92.38
73564;BME280;61834;50.196;6.454;2023-03-14T12:23:28;94809.94;;;4.22;91.08
73564;BME280;61834;50.196;6.454;2023-03-14T12:26:08;94841.25;;;4.23;92.88
73564;BME280;61834;50.196;6.454;2023-03-14T12:28:38;94831.16;;;4.13;92.76
73564;BME280;61834;50.196;6.454;2023-03-14T12:34:00;94862.53;;;4.25;93.00
73564;BME280;61834;50.196;6.454;2023-03-14T12:36:45;94858.28;;;4.20;92.13
73564;BME280;61834;50.196;6.454;2023-03-14T12:42:11;94848.00;;;4.54;90.85
73564;BME280;61834;50.196;6.454;2023-03-14T12:49:40;94854.22;;;4.68;90.10
73564;BME280;61834;50.196;6.454;2023-03-14T12:52:11;94873.94;;;4.62;90.75
73564;BME280;61834;50.196;6.454;2023-03-14T12:54:42;94882.03;;;4.55;89.41
73564;BME280;61834;50.196;6.454;2023-03-14T12:57:24;94878.16;;;4.56;90.10
73564;BME280;61834;50.196;6.454;2023-03-14T13:02:21;94882.84;;;4.66;89.34
73564;BME280;61834;50.196;6.454;2023-03-14T13:04:49;94896.03;;;4.71;90.07
73564;BME280;61834;50.196;6.454;2023-03-14T13:09:50;94916.47;;;4.54;90.46
73564;BME280;61834;50.196;6.454;2023-03-14T13:12:17;94927.28;;;4.44;93.34
73564;BME280;61834;50.196;6.454;2023-03-14T13:14:47;94932.19;;;4.24;92.90
73564;BME280;61834;50.196;6.454;2023-03-14T13:17:14;94935.91;;;4.06;94.32
73564;BME280;61834;50.196;6.454;2023-03-14T13:19:40;94950.16;;;3.96;92.32
73564;BME280;61834;50.196;6.454;2023-03-14T13:22:38;94944.50;;;4.15;92.44
73564;BME280;61834;50.196;6.454;2023-03-14T13:25:00;94958.44;;;4.17;92.67
73564;BME280;61834;50.196;6.454;2023-03-14T13:27:27;94953.72;;;4.07;92.21
73564;BME280;61834;50.196;6.454;2023-03-14T13:29:55;94964.91;;;4.02;93.88
73564;BME280;61834;50.196;6.454;2023-03-14T13:32:22;94965.69;;;4.02;94.97
73564;BME280;61834;50.196;6.454;2023-03-14T13:34:47;94972.34;;;4.12;95.31
73564;BME280;61834;50.196;6.454;2023-03-14T13:37:21;94977.81;;;4.19;94.29
73564;BME280;61834;50.196;6.454;2023-03-14T13:39:51;94992.41;;;4.07;94.53
73564;BME280;61834;50.196;6.454;2023-03-14T13:42:16;94986.84;;;3.89;93.39
73564;BME280;61834;50.196;6.454;2023-03-14T13:44:42;94992.00;;;4.05;94.04
73564;BME280;61834;50.196;6.454;2023-03-14T13:47:14;94992.78;;;4.02;93.11
73564;BME280;61834;50.196;6.454;2023-03-14T13:49:41;94985.06;;;4.08;92.43
73564;BME280;61834;50.196;6.454;2023-03-14T13:52:21;95011.03;;;4.12;92.92
73564;BME280;61834;50.196;6.454;2023-03-14T13:54:47;95013.22;;;4.00;93.53
73564;BME280;61834;50.196;6.454;2023-03-14T13:57:12;95030.09;;;4.26;96.03